»·PEaware :: SWA549 KSAN-KABQ

SWA549 :: KSAN-KABQ

FLIGHT INFORMATION

Flight Status: Arrived
Operator:
Southwest Airlines
More flights by this operator :: More flights under this callsign
Pilot: Ben F. (2808)
Aircraft: BOEING 737-300
(B733)
More flights by this aircraft type
Origin: KSAN San Diego Intl-Lindbergh
United States
Destination: KABQ Albuquerque Intl Sunport
United States
More flights between these airports :: More routes between these airports
Route: ZZOOO1 IPL J18 GBN PXR J18 SJN CABNO KRKEE3
File this flight plan on PilotEdge
Remarks: PBN / A1B3B4B5D3D4 NAV / RNVD1E2A1 REG / N372SB EET / KZAB0026 RMK / SIMBRIEF
Altitude:
(Current/Filed)
35,000ft
Speed:
(Current/Filed)
424kts
Departed: 24-Nov-17 09:40 AM
Arrived: 24-Nov-17 11:04 AM
Distance/Time
Traveled:
544nm/1:23
Distance/Time
To Go:
Arrived

Flight Plot

Page will automatically refresh every two minutes.

Flight plan parsing failed; only flown route is shown


Map Options




Map Legend


Flown Route
Filed Route
Departure Airport
Arrival Airport
Navaid (VOR, NDB)
Fix

Horizontal Profiles

Position Reports

Time Latitude Longitude Heading Altitude Ground
Speed
24-Nov-17 09:23 32.732571 -117.195499 311 24ft 0kts
24-Nov-17 09:24 32.732571 -117.195499 311 24ft 0kts
24-Nov-17 09:25 32.732571 -117.195499 311 24ft 0kts
24-Nov-17 09:26 32.732571 -117.195499 311 24ft 0kts
24-Nov-17 09:27 32.732571 -117.195499 311 24ft 0kts
24-Nov-17 09:28 32.732571 -117.195499 311 24ft 0kts
24-Nov-17 09:29 32.732571 -117.195499 311 24ft 0kts
24-Nov-17 09:30 32.732571 -117.195499 311 24ft 0kts
24-Nov-17 09:31 32.732571 -117.195499 311 24ft 0kts
24-Nov-17 09:32 32.732571 -117.195499 311 24ft 0kts
24-Nov-17 09:33 32.732571 -117.195499 311 24ft 0kts
24-Nov-17 09:34 32.732571 -117.195499 311 24ft 0kts
24-Nov-17 09:35 32.732571 -117.195499 311 24ft 0kts
24-Nov-17 09:36 32.732571 -117.195499 311 24ft 0kts
24-Nov-17 09:37 32.732571 -117.195499 311 24ft 0kts
24-Nov-17 09:38 32.732443 -117.195325 311 24ft 2kts
24-Nov-17 09:39 32.732013 -117.194941 7 24ft 2kts
24-Nov-17 09:40 32.731904 -117.194981 20 24ft 0kts
24-Nov-17 09:41 32.732008 -117.194936 19 24ft 2kts
24-Nov-17 09:42 32.733412 -117.193378 100 24ft 18kts
24-Nov-17 09:43 32.731563 -117.185733 105 24ft 27kts
24-Nov-17 09:44 32.729513 -117.177236 106 24ft 18kts
24-Nov-17 09:45 32.731816 -117.182459 286 24ft 102kts
24-Nov-17 09:46 32.744700 -117.235914 286 1429ft 206kts
24-Nov-17 09:47 32.747201 -117.308310 221 3244ft 259kts
24-Nov-17 09:48 32.691281 -117.295591 144 5624ft 266kts
24-Nov-17 09:49 32.633462 -117.239549 112 8176ft 280kts
24-Nov-17 09:50 32.627340 -117.143992 80 10112ft 309kts
24-Nov-17 09:51 32.637731 -117.037599 83 12104ft 340kts
24-Nov-17 09:52 32.647050 -116.921756 83 14087ft 368kts
24-Nov-17 09:53 32.656905 -116.795457 83 15834ft 400kts
24-Nov-17 09:54 32.667258 -116.660807 84 17769ft 419kts
24-Nov-17 09:55 32.677824 -116.521345 84 19747ft 432kts
24-Nov-17 09:56 32.688558 -116.377503 84 21601ft 445kts
24-Nov-17 09:57 32.699407 -116.229555 84 23254ft 457kts
24-Nov-17 09:58 32.710372 -116.077766 84 24840ft 467kts
24-Nov-17 09:59 32.721367 -115.922929 84 26297ft 477kts
24-Nov-17 10:00 32.732422 -115.764413 84 27657ft 487kts
24-Nov-17 10:01 32.743357 -115.604501 84 29410ft 483kts
24-Nov-17 10:02 32.750903 -115.445880 89 30868ft 482kts
24-Nov-17 10:03 32.754197 -115.287976 88 32094ft 482kts
24-Nov-17 10:04 32.757771 -115.130977 89 33249ft 478kts
24-Nov-17 10:05 32.760785 -114.983562 89 34093ft 477kts
24-Nov-17 10:06 32.763984 -114.826648 89 34880ft 477kts
24-Nov-17 10:07 32.767072 -114.667955 89 34974ft 484kts
24-Nov-17 10:08 32.769447 -114.508571 89 34969ft 483kts
24-Nov-17 10:09 32.771650 -114.349925 90 34982ft 483kts
24-Nov-17 10:10 32.773679 -114.192121 90 34998ft 484kts
24-Nov-17 10:11 32.775361 -114.032277 90 34996ft 483kts
24-Nov-17 10:12 32.789475 -113.874183 79 34998ft 484kts
24-Nov-17 10:13 32.812547 -113.716673 79 34996ft 484kts
24-Nov-17 10:14 32.834727 -113.559425 79 35009ft 484kts
24-Nov-17 10:15 32.857016 -113.401381 79 35081ft 486kts
24-Nov-17 10:16 32.878750 -113.245549 80 35077ft 485kts
24-Nov-17 10:17 32.900611 -113.087560 80 35078ft 486kts
24-Nov-17 10:18 32.922340 -112.929016 80 35077ft 486kts
24-Nov-17 10:19 32.943802 -112.770888 80 35078ft 486kts
24-Nov-17 10:20 32.985228 -112.622692 42 35083ft 473kts
24-Nov-17 10:21 33.072551 -112.503996 46 35027ft 477kts
24-Nov-17 10:22 33.150432 -112.389588 44 34982ft 432kts
24-Nov-17 10:23 33.222878 -112.282719 45 34992ft 447kts
24-Nov-17 10:24 33.301057 -112.167000 45 35029ft 451kts
24-Nov-17 10:25 33.378998 -112.051364 45 35023ft 449kts
24-Nov-17 10:26 33.449825 -111.928926 62 35023ft 460kts
24-Nov-17 10:27 33.499640 -111.788068 61 35024ft 459kts
24-Nov-17 10:28 33.550617 -111.648125 61 35022ft 459kts
24-Nov-17 10:29 33.601418 -111.508027 61 35052ft 458kts
24-Nov-17 10:30 33.651492 -111.369313 61 35008ft 452kts
24-Nov-17 10:31 33.700786 -111.231233 62 35059ft 460kts
24-Nov-17 10:32 33.750763 -111.090893 61 35174ft 457kts
24-Nov-17 10:33 33.800857 -110.950380 61 35189ft 457kts
24-Nov-17 10:34 33.850425 -110.810368 62 35185ft 457kts
24-Nov-17 10:35 33.899855 -110.669922 61 35241ft 457kts
24-Nov-17 10:36 33.949362 -110.529183 61 35241ft 456kts
24-Nov-17 10:37 33.997913 -110.390585 61 35206ft 453kts
24-Nov-17 10:38 34.046247 -110.250663 62 35246ft 456kts
24-Nov-17 10:39 34.095153 -110.109714 62 35240ft 455kts
24-Nov-17 10:40 34.143052 -109.971922 62 35240ft 455kts
24-Nov-17 10:41 34.191552 -109.831032 62 35238ft 454kts
24-Nov-17 10:42 34.239814 -109.690200 62 35183ft 454kts
24-Nov-17 10:43 34.287303 -109.549550 60 35187ft 451kts
24-Nov-17 10:44 34.334475 -109.410499 60 35186ft 453kts
24-Nov-17 10:45 34.381047 -109.272381 60 35183ft 451kts
24-Nov-17 10:46 34.426735 -109.130769 71 35173ft 460kts
24-Nov-17 10:47 34.445440 -108.975744 74 35188ft 465kts
24-Nov-17 10:48 34.461646 -108.847365 74 35185ft 464kts
24-Nov-17 10:49 34.484168 -108.667316 74 35185ft 464kts
24-Nov-17 10:50 34.503148 -108.513844 73 35184ft 457kts
24-Nov-17 10:51 34.524298 -108.387626 71 35221ft 462kts
24-Nov-17 10:52 34.548644 -108.245879 72 33941ft 463kts
24-Nov-17 10:53 34.578660 -108.069940 72 31174ft 461kts
24-Nov-17 10:54 34.604002 -107.919944 73 28789ft 449kts
24-Nov-17 10:55 34.625578 -107.798363 62 26775ft 430kts
24-Nov-17 10:56 34.679543 -107.674575 56 24397ft 408kts
24-Nov-17 10:57 34.730917 -107.555662 56 22007ft 391kts
24-Nov-17 10:58 34.780803 -107.439587 56 19622ft 386kts
24-Nov-17 10:59 34.828189 -107.328806 57 17229ft 366kts
24-Nov-17 11:00 34.872664 -107.221835 59 14836ft 346kts
24-Nov-17 11:01 34.914858 -107.120737 62 12559ft 324kts
24-Nov-17 11:02 34.954167 -107.028392 62 10941ft 295kts
24-Nov-17 11:03 34.990277 -106.940938 63 9349ft 287kts
24-Nov-17 11:04 35.023768 -106.855751 63 8104ft 264kts
24-Nov-17 11:05 35.028985 -106.782898 138 8014ft 221kts
24-Nov-17 11:06 35.030380 -106.716547 58 7195ft 201kts
24-Nov-17 11:07 35.045075 -106.659257 93 6119ft 172kts
24-Nov-17 11:08 35.044245 -106.605581 90 5361ft 121kts
24-Nov-17 11:09 35.045079 -106.596543 57 5361ft 2kts
24-Nov-17 11:10 35.045739 -106.601358 270 5361ft 22kts
24-Nov-17 11:11 35.045792 -106.610080 270 5361ft 28kts
24-Nov-17 11:12 35.048118 -106.614102 251 5361ft 8kts

Navigation Log

Ident Type
Flight plan parsing failed, navigation log unavailable